createdAt,value
2022-07-29T00:00:06.854Z,1.42
2022-07-29T00:02:36.618Z,1.35
2022-07-29T00:05:07.897Z,1.40
2022-07-29T00:07:38.148Z,1.50
2022-07-29T00:10:08.968Z,1.70
2022-07-29T00:12:44.628Z,1.50
2022-07-29T00:15:18.286Z,1.60
2022-07-29T00:17:50.479Z,1.30
2022-07-29T00:20:22.710Z,1.48
2022-07-29T00:22:54.313Z,1.50
2022-07-29T00:25:30.526Z,1.45
2022-07-29T00:28:02.481Z,1.55
2022-07-29T00:30:32.150Z,1.50
2022-07-29T00:33:06.933Z,1.90
2022-07-29T00:35:46.516Z,1.30
2022-07-29T00:38:15.091Z,1.45
2022-07-29T00:40:47.735Z,1.70
2022-07-29T00:43:20.870Z,1.42
2022-07-29T00:48:38.144Z,1.60
2022-07-29T00:51:09.021Z,1.38
2022-07-29T00:53:39.930Z,1.30
2022-07-29T00:56:22.820Z,1.40
2022-07-29T00:58:52.354Z,1.52
2022-07-29T01:01:29.697Z,1.48
2022-07-29T01:03:59.462Z,1.40
2022-07-29T01:06:29.090Z,1.42
2022-07-29T01:09:00.681Z,1.42
2022-07-29T01:11:35.314Z,1.40
2022-07-29T01:14:05.322Z,1.40
2022-07-29T01:16:48.390Z,1.35
2022-07-29T01:19:22.878Z,1.48
2022-07-29T01:22:01.705Z,1.65
2022-07-29T01:24:39.455Z,1.30
2022-07-29T01:27:15.848Z,1.38
2022-07-29T01:29:52.385Z,1.42
2022-07-29T01:32:28.844Z,1.40
2022-07-29T01:35:15.359Z,1.45
2022-07-29T01:37:55.782Z,1.50
2022-07-29T01:40:35.834Z,1.45
2022-07-29T01:43:11.778Z,1.65
2022-07-29T01:45:42.575Z,1.50
2022-07-29T01:48:28.711Z,1.50
2022-07-29T01:51:01.457Z,1.50
2022-07-29T01:53:37.981Z,1.38
2022-07-29T01:56:12.342Z,1.38
2022-07-29T01:58:49.004Z,1.50
2022-07-29T02:01:23.729Z,1.50
2022-07-29T02:03:51.423Z,1.95
2022-07-29T02:06:27.134Z,1.63
2022-07-29T02:08:55.165Z,1.75
2022-07-29T02:11:28.982Z,1.65
2022-07-29T02:13:59.781Z,1.80
2022-07-29T02:16:39.205Z,1.50
2022-07-29T02:19:12.175Z,1.73
2022-07-29T02:21:46.177Z,1.60
2022-07-29T02:24:15.404Z,1.70
2022-07-29T02:26:48.709Z,1.90
2022-07-29T02:29:16.507Z,1.80
2022-07-29T02:31:48.003Z,1.30
2022-07-29T02:34:20.026Z,1.77
2022-07-29T02:36:55.535Z,1.70
2022-07-29T02:39:30.137Z,1.77
2022-07-29T02:42:04.379Z,1.55
2022-07-29T02:44:35.465Z,1.83
2022-07-29T02:47:11.624Z,1.60
2022-07-29T02:49:55.563Z,1.90
2022-07-29T02:52:38.830Z,1.73
2022-07-29T02:55:23.546Z,1.90
2022-07-29T02:58:02.557Z,1.90
2022-07-29T03:00:30.845Z,2.03
2022-07-29T03:03:02.542Z,2.00
2022-07-29T03:05:33.603Z,1.65
2022-07-29T03:08:04.377Z,1.92
2022-07-29T03:10:32.514Z,1.70
2022-07-29T03:13:02.025Z,1.77
2022-07-29T03:15:32.160Z,1.90
2022-07-29T03:18:03.189Z,2.22
2022-07-29T03:20:38.623Z,2.00
2022-07-29T03:23:06.154Z,1.88
2022-07-29T03:25:33.476Z,1.77
2022-07-29T03:28:01.532Z,1.90
2022-07-29T03:30:35.731Z,1.92
2022-07-29T03:33:13.323Z,1.90
2022-07-29T03:35:45.318Z,1.80
2022-07-29T03:38:23.326Z,1.85
2022-07-29T03:40:59.262Z,1.70
2022-07-29T03:43:28.671Z,1.80
2022-07-29T03:45:58.071Z,2.10
2022-07-29T03:48:33.394Z,2.10
2022-07-29T03:51:01.003Z,1.75
2022-07-29T03:53:32.301Z,1.55
2022-07-29T03:56:07.577Z,1.65
2022-07-29T03:58:41.868Z,1.95
2022-07-29T04:01:22.097Z,1.60
2022-07-29T04:03:52.583Z,1.73
2022-07-29T04:06:21.085Z,1.73
2022-07-29T04:08:48.548Z,1.88
2022-07-29T04:11:16.259Z,1.65
2022-07-29T04:13:46.515Z,1.70
2022-07-29T04:16:17.791Z,1.90
2022-07-29T04:18:45.420Z,1.60
2022-07-29T04:21:17.954Z,1.45
2022-07-29T04:23:52.930Z,1.63
2022-07-29T04:26:25.016Z,1.55
2022-07-29T04:28:59.911Z,1.48
2022-07-29T04:31:29.880Z,1.70
2022-07-29T04:33:57.348Z,1.80
2022-07-29T04:36:29.083Z,1.48
2022-07-29T04:39:02.324Z,1.73
2022-07-29T04:41:33.220Z,1.90
2022-07-29T04:44:07.502Z,1.50
2022-07-29T04:46:36.947Z,1.40
2022-07-29T04:49:07.094Z,2.03
2022-07-29T04:51:37.925Z,1.60
2022-07-29T04:54:07.769Z,1.70
2022-07-29T04:56:37.595Z,1.35
2022-07-29T04:59:10.665Z,2.03
2022-07-29T05:02:02.777Z,1.45
2022-07-29T05:04:32.774Z,1.60
2022-07-29T05:07:01.469Z,1.73
2022-07-29T05:09:28.845Z,1.50
2022-07-29T05:12:09.507Z,1.60
2022-07-29T05:14:36.791Z,1.70
2022-07-29T05:17:13.512Z,1.70
2022-07-29T05:19:41.019Z,1.67
2022-07-29T05:22:12.928Z,1.80
2022-07-29T05:24:40.449Z,1.90
2022-07-29T05:27:09.558Z,1.80
2022-07-29T05:29:43.095Z,1.60
2022-07-29T05:32:16.746Z,1.83
2022-07-29T05:34:51.805Z,1.67
2022-07-29T05:37:22.513Z,2.10
2022-07-29T05:39:50.688Z,1.83
2022-07-29T05:42:31.970Z,2.00
2022-07-29T05:45:04.177Z,1.70
2022-07-29T05:47:36.228Z,1.77
2022-07-29T05:50:09.595Z,1.70
2022-07-29T05:52:41.013Z,1.92
2022-07-29T05:55:21.828Z,1.92
2022-07-29T05:57:52.170Z,1.70
2022-07-29T06:00:26.109Z,1.65
2022-07-29T06:02:59.364Z,1.80
2022-07-29T06:08:01.618Z,1.80
2022-07-29T06:10:30.912Z,1.90
2022-07-29T06:12:58.453Z,2.00
2022-07-29T06:15:28.282Z,1.60
2022-07-29T06:17:59.132Z,1.70
2022-07-29T06:20:36.722Z,2.00
2022-07-29T06:23:07.495Z,2.20
2022-07-29T06:25:39.580Z,1.90
2022-07-29T06:28:07.009Z,2.25
2022-07-29T06:30:39.406Z,1.73
2022-07-29T06:33:10.710Z,1.92
2022-07-29T06:36:04.593Z,1.70
2022-07-29T06:38:42.049Z,2.03
2022-07-29T06:41:20.083Z,1.95
2022-07-29T06:43:56.808Z,1.80
2022-07-29T06:46:27.454Z,2.35
2022-07-29T06:48:55.466Z,2.00
2022-07-29T06:51:28.671Z,2.00
2022-07-29T06:56:30.057Z,2.85
2022-07-29T06:59:11.997Z,2.00
2022-07-29T07:01:54.543Z,1.98
2022-07-29T07:04:37.936Z,2.00
2022-07-29T07:09:40.333Z,2.28
2022-07-29T07:12:25.854Z,2.38
2022-07-29T07:14:54.643Z,2.25
2022-07-29T07:17:25.434Z,2.30
2022-07-29T07:20:02.737Z,2.00
2022-07-29T07:22:38.629Z,2.28
2022-07-29T07:25:09.628Z,2.13
2022-07-29T07:27:40.885Z,2.20
2022-07-29T07:30:15.195Z,2.28
2022-07-29T07:32:46.423Z,2.20
2022-07-29T07:35:16.233Z,2.38
2022-07-29T07:37:45.930Z,2.05
2022-07-29T07:40:26.215Z,2.15
2022-07-29T07:42:53.767Z,2.28
2022-07-29T07:45:25.034Z,2.42
2022-07-29T07:48:05.485Z,2.40
2022-07-29T07:50:32.975Z,2.15
2022-07-29T07:53:18.580Z,2.22
2022-07-29T07:56:10.034Z,2.20
2022-07-29T07:58:41.398Z,2.20
2022-07-29T08:01:26.545Z,1.90
2022-07-29T08:04:14.898Z,2.00
2022-07-29T08:06:44.833Z,2.10
2022-07-29T08:09:28.748Z,2.17
2022-07-29T08:12:06.043Z,2.00
2022-07-29T08:14:36.182Z,2.10
2022-07-29T08:17:07.426Z,1.90
2022-07-29T08:19:37.900Z,2.00
2022-07-29T08:22:10.415Z,1.90
2022-07-29T08:25:03.972Z,2.42
2022-07-29T08:30:19.828Z,2.17
2022-07-29T08:32:54.270Z,2.55
2022-07-29T08:35:35.438Z,2.15
2022-07-29T08:38:31.505Z,2.40
2022-07-29T08:44:31.854Z,1.90
2022-07-29T08:49:34.490Z,2.50
2022-07-29T08:52:22.969Z,2.38
2022-07-29T08:55:13.452Z,2.22
2022-07-29T08:58:53.514Z,2.10
2022-07-29T09:01:17.944Z,1.98
2022-07-29T09:03:52.159Z,1.83
2022-07-29T09:10:09.755Z,2.00
2022-07-29T09:15:37.916Z,2.00
2022-07-29T09:18:30.812Z,1.80
2022-07-29T09:21:20.763Z,1.85
2022-07-29T09:27:51.542Z,1.90
2022-07-29T09:36:14.132Z,2.08
2022-07-29T09:38:44.995Z,2.00
2022-07-29T09:41:21.189Z,1.77
2022-07-29T09:44:17.228Z,1.95
2022-07-29T09:47:01.273Z,1.55
2022-07-29T09:49:41.428Z,1.92
2022-07-29T09:52:14.102Z,1.70
2022-07-29T09:54:51.328Z,1.52
2022-07-29T09:57:50.323Z,1.70
2022-07-29T10:00:33.068Z,1.42
2022-07-29T10:03:05.965Z,1.60
2022-07-29T10:05:49.332Z,1.38
2022-07-29T10:08:28.769Z,1.55
2022-07-29T10:11:18.663Z,1.73
2022-07-29T10:13:47.325Z,1.70
2022-07-29T10:16:21.977Z,2.00
2022-07-29T10:18:52.055Z,1.67
2022-07-29T10:21:36.076Z,1.70
2022-07-29T10:24:04.107Z,2.75
2022-07-29T10:26:44.269Z,1.42
2022-07-29T10:29:11.728Z,1.60
2022-07-29T10:31:47.117Z,1.73
2022-07-29T10:34:22.961Z,2.25
2022-07-29T10:37:23.542Z,1.50
2022-07-29T10:40:25.105Z,1.55
2022-07-29T10:43:18.149Z,1.88
2022-07-29T10:45:55.860Z,2.05
2022-07-29T10:48:48.114Z,1.95
2022-07-29T10:51:18.539Z,1.90
2022-07-29T10:56:01.348Z,1.85
2022-07-29T10:57:52.697Z,1.73
2022-07-29T11:00:23.819Z,2.78
2022-07-29T11:02:57.799Z,2.08
2022-07-29T11:05:46.767Z,2.90
2022-07-29T11:08:29.370Z,2.20
2022-07-29T11:11:29.579Z,2.10
2022-07-29T11:14:10.351Z,1.95
2022-07-29T11:17:00.927Z,2.42
2022-07-29T11:19:37.283Z,2.00
2022-07-29T11:22:11.470Z,2.33
2022-07-29T11:24:50.048Z,2.00
2022-07-29T11:27:28.405Z,2.17
2022-07-29T11:30:06.926Z,2.20
2022-07-29T11:32:40.283Z,2.47
2022-07-29T11:35:37.682Z,2.00
2022-07-29T11:38:27.982Z,2.50
2022-07-29T11:41:14.771Z,2.03
2022-07-29T11:43:56.682Z,2.05
2022-07-29T11:46:47.107Z,1.98
2022-07-29T11:49:34.445Z,1.75
2022-07-29T11:52:15.533Z,1.98
2022-07-29T11:54:58.249Z,2.40
2022-07-29T12:00:12.161Z,2.10
2022-07-29T12:02:43.430Z,2.20
2022-07-29T12:05:14.469Z,2.70
2022-07-29T12:08:03.161Z,2.45
2022-07-29T12:10:39.361Z,1.80
2022-07-29T12:13:09.111Z,2.25
2022-07-29T12:15:52.547Z,2.53
2022-07-29T12:18:24.364Z,2.53
2022-07-29T12:21:03.183Z,2.75
2022-07-29T12:23:34.973Z,2.17
2022-07-29T12:26:25.438Z,1.88
2022-07-29T12:28:55.210Z,1.80
2022-07-29T12:31:43.707Z,2.13
2022-07-29T12:34:23.510Z,2.05
2022-07-29T12:36:59.806Z,2.00
2022-07-29T12:39:32.762Z,1.83
2022-07-29T12:42:25.520Z,1.60
2022-07-29T12:45:07.725Z,2.17
2022-07-29T12:47:45.234Z,2.23
2022-07-29T12:50:26.417Z,2.00
2022-07-29T12:52:56.647Z,2.17
2022-07-29T12:55:57.176Z,1.80
2022-07-29T12:58:59.517Z,2.53
2022-07-29T13:01:34.451Z,1.85
2022-07-29T13:33:59.576Z,2.47
2022-07-29T13:36:27.719Z,2.50
2022-07-29T13:38:54.992Z,2.17
2022-07-29T13:41:22.178Z,2.20
2022-07-29T13:43:50.105Z,2.70
2022-07-29T13:46:17.514Z,2.28
2022-07-29T13:48:44.676Z,2.20
2022-07-29T13:51:12.087Z,2.80
2022-07-29T13:53:39.303Z,2.15
2022-07-29T13:56:07.199Z,2.28
2022-07-29T13:58:35.152Z,2.20
2022-07-29T14:01:02.381Z,2.30
2022-07-29T14:03:29.687Z,2.03
2022-07-29T14:05:57.325Z,1.98
2022-07-29T14:08:25.494Z,2.40
2022-07-29T14:10:52.775Z,1.85
2022-07-29T14:13:24.667Z,2.17
2022-07-29T14:15:53.096Z,2.20
2022-07-29T14:18:20.160Z,2.08
2022-07-29T14:20:47.290Z,2.08
2022-07-29T14:23:16.478Z,2.20
2022-07-29T14:25:44.532Z,2.67
2022-07-29T14:28:14.695Z,2.78
2022-07-29T14:30:45.038Z,2.30
2022-07-29T14:33:14.572Z,2.72
2022-07-29T14:35:42.068Z,2.42
2022-07-29T14:38:10.048Z,2.33
2022-07-29T14:40:37.394Z,2.30
2022-07-29T14:43:04.524Z,2.60
2022-07-29T14:45:32.485Z,2.95
2022-07-29T14:48:01.094Z,2.30
2022-07-29T14:50:31.985Z,3.22
2022-07-29T14:52:59.427Z,2.33
2022-07-29T14:55:26.575Z,2.40
2022-07-29T14:58:03.113Z,2.35
2022-07-29T15:00:35.009Z,2.10
2022-07-29T15:03:03.183Z,2.50
2022-07-29T15:05:31.239Z,2.33
2022-07-29T15:07:59.045Z,1.90
2022-07-29T15:10:28.035Z,1.95
2022-07-29T15:12:55.703Z,1.90
2022-07-29T15:15:23.121Z,2.75
2022-07-29T15:17:50.297Z,2.55
2022-07-29T15:20:17.948Z,2.20
2022-07-29T15:22:45.535Z,2.30
2022-07-29T15:25:12.840Z,1.92
2022-07-29T15:27:42.697Z,2.58
2022-07-29T15:30:33.023Z,1.77
2022-07-29T15:33:02.961Z,1.83
2022-07-29T15:35:30.402Z,2.30
2022-07-29T15:37:57.472Z,1.90
2022-07-29T15:40:25.028Z,1.92
2022-07-29T15:42:52.213Z,2.00
2022-07-29T15:45:19.663Z,1.88
2022-07-29T15:47:47.119Z,1.60
2022-07-29T15:50:17.132Z,1.58
2022-07-29T15:52:44.343Z,4.10
2022-07-29T15:55:12.069Z,2.40
2022-07-29T15:57:40.888Z,1.88
2022-07-29T16:00:08.466Z,1.45
2022-07-29T16:02:36.454Z,1.90
2022-07-29T16:05:03.946Z,1.65
2022-07-29T16:10:03.931Z,1.70
2022-07-29T16:12:31.498Z,4.30
2022-07-29T16:14:58.615Z,1.92
2022-07-29T16:17:25.932Z,2.03
2022-07-29T16:19:54.514Z,1.60
2022-07-29T16:22:21.579Z,1.60
2022-07-29T16:24:48.811Z,1.80
2022-07-29T16:27:16.597Z,1.70
2022-07-29T16:29:43.802Z,1.95
2022-07-29T16:32:11.003Z,1.77
2022-07-29T16:34:38.507Z,1.70
2022-07-29T16:37:05.897Z,1.63
2022-07-29T16:39:33.932Z,1.70
2022-07-29T16:42:03.994Z,1.80
2022-07-29T16:44:32.576Z,1.95
2022-07-29T16:47:00.146Z,1.65
2022-07-29T16:49:28.649Z,8.40
2022-07-29T16:51:55.845Z,2.10
2022-07-29T16:54:22.934Z,2.17
2022-07-29T16:56:50.031Z,1.67
2022-07-29T16:59:17.291Z,1.75
2022-07-29T17:01:44.706Z,1.88
2022-07-29T17:04:14.857Z,2.03
2022-07-29T17:06:42.485Z,1.63
2022-07-29T17:09:10.241Z,2.13
2022-07-29T17:11:52.782Z,2.80
2022-07-29T17:14:23.347Z,1.65
2022-07-29T17:17:00.006Z,2.10
2022-07-29T17:19:29.914Z,1.80
2022-07-29T17:22:04.753Z,9.98
2022-07-29T17:24:36.554Z,1.90
2022-07-29T17:27:05.543Z,1.55
2022-07-29T17:29:33.083Z,1.67
2022-07-29T17:32:03.582Z,2.33
2022-07-29T17:34:30.824Z,1.70
2022-07-29T17:36:58.360Z,1.80
2022-07-29T17:39:25.947Z,1.70
2022-07-29T17:41:53.397Z,1.63
2022-07-29T17:44:20.875Z,2.17
2022-07-29T17:46:50.244Z,1.70
2022-07-29T17:49:19.091Z,1.98
2022-07-29T17:51:46.848Z,1.67
2022-07-29T17:54:14.116Z,1.80
2022-07-29T17:56:41.568Z,1.70
2022-07-29T17:59:10.105Z,1.75
2022-07-29T18:01:38.081Z,1.85
2022-07-29T18:04:05.567Z,1.60
2022-07-29T18:06:35.191Z,1.80
2022-07-29T18:09:02.272Z,1.75
2022-07-29T18:11:31.842Z,2.83
2022-07-29T18:13:59.072Z,1.40
2022-07-29T18:16:29.692Z,1.60
2022-07-29T18:18:56.947Z,1.75
2022-07-29T18:21:43.555Z,1.90
2022-07-29T18:24:11.516Z,1.70
2022-07-29T18:26:38.993Z,1.70
2022-07-29T18:29:06.960Z,1.70
2022-07-29T18:31:38.045Z,1.40
2022-07-29T18:34:06.303Z,1.85
2022-07-29T18:36:33.582Z,1.52
2022-07-29T18:39:00.915Z,1.80
2022-07-29T18:41:28.160Z,2.88
2022-07-29T18:43:55.213Z,1.70
2022-07-29T18:46:22.478Z,1.60
2022-07-29T18:48:50.112Z,1.90
2022-07-29T18:51:17.304Z,1.90
2022-07-29T18:53:44.724Z,1.75
2022-07-29T18:56:11.950Z,1.80
2022-07-29T18:58:39.642Z,1.60
2022-07-29T19:01:07.016Z,1.58
2022-07-29T19:03:34.143Z,1.90
2022-07-29T19:06:01.390Z,1.70
2022-07-29T19:08:28.741Z,2.20
2022-07-29T19:10:55.832Z,2.40
2022-07-29T19:13:23.232Z,2.58
2022-07-29T19:15:50.378Z,2.50
2022-07-29T19:18:17.529Z,2.08
2022-07-29T19:20:58.617Z,2.10
2022-07-29T19:23:28.933Z,2.45
2022-07-29T19:25:56.295Z,1.80
2022-07-29T19:28:24.132Z,2.00
2022-07-29T19:30:51.883Z,2.40
2022-07-29T19:33:19.903Z,2.30
2022-07-29T19:35:48.463Z,2.35
2022-07-29T19:38:18.923Z,1.90
2022-07-29T19:40:46.145Z,2.13
2022-07-29T19:43:50.966Z,1.95
2022-07-29T19:46:05.187Z,2.45
2022-07-29T19:48:32.818Z,2.00
2022-07-29T19:50:59.916Z,2.30
2022-07-29T19:53:27.010Z,3.65
2022-07-29T19:55:54.791Z,4.50
2022-07-29T19:58:22.496Z,2.72
2022-07-29T20:00:54.006Z,2.27
2022-07-29T20:03:23.350Z,2.40
2022-07-29T20:05:53.955Z,1.90
2022-07-29T20:08:21.011Z,2.40
2022-07-29T20:10:48.166Z,2.70
2022-07-29T20:13:15.232Z,3.42
2022-07-29T20:15:42.766Z,2.88
2022-07-29T20:18:09.904Z,2.92
2022-07-29T20:20:37.060Z,2.70
2022-07-29T20:23:04.696Z,3.20
2022-07-29T20:25:32.211Z,2.95
2022-07-29T20:28:00.131Z,3.28
2022-07-29T20:30:27.979Z,3.40
2022-07-29T20:32:56.675Z,3.30
2022-07-29T20:35:23.866Z,3.00
2022-07-29T20:37:52.331Z,2.75
2022-07-29T20:40:23.716Z,3.20
2022-07-29T20:42:51.129Z,3.17
2022-07-29T20:45:19.898Z,3.03
2022-07-29T20:47:47.244Z,3.13
2022-07-29T20:50:15.496Z,2.78
2022-07-29T20:52:44.041Z,3.50
2022-07-29T20:55:11.707Z,2.97
2022-07-29T20:57:39.994Z,3.60
2022-07-29T21:00:08.530Z,4.00
2022-07-29T21:02:35.928Z,3.40
2022-07-29T21:05:03.154Z,3.58
2022-07-29T21:07:30.435Z,3.40
2022-07-29T21:09:57.677Z,3.58
2022-07-29T21:12:24.992Z,3.53
2022-07-29T21:14:52.656Z,3.58
2022-07-29T21:17:22.428Z,4.00
2022-07-29T21:19:52.650Z,3.35
2022-07-29T21:22:21.993Z,3.83
2022-07-29T21:24:50.128Z,3.47
2022-07-29T21:27:38.481Z,4.10
2022-07-29T21:30:06.780Z,3.97
2022-07-29T21:32:34.133Z,4.10
2022-07-29T21:35:01.502Z,4.03
2022-07-29T21:37:28.762Z,4.20
2022-07-29T21:39:55.800Z,3.95
2022-07-29T21:42:23.088Z,4.40
2022-07-29T21:44:51.887Z,3.90
2022-07-29T21:47:18.930Z,4.03
2022-07-29T21:49:46.619Z,3.90
2022-07-29T21:52:14.722Z,3.90
2022-07-29T21:54:42.049Z,4.38
2022-07-29T21:57:09.723Z,4.55
2022-07-29T21:59:36.832Z,4.68
2022-07-29T22:02:04.151Z,4.72
2022-07-29T22:04:32.056Z,4.47
2022-07-29T22:06:59.874Z,4.63
2022-07-29T22:09:28.351Z,4.35
2022-07-29T22:11:55.854Z,4.20
2022-07-29T22:14:22.966Z,5.68
2022-07-29T22:16:50.316Z,4.97
2022-07-29T22:19:17.716Z,4.80
2022-07-29T22:21:44.843Z,5.40
2022-07-29T22:24:11.952Z,5.07
2022-07-29T22:26:39.118Z,4.65
2022-07-29T22:29:06.693Z,4.28
2022-07-29T22:31:34.105Z,4.45
2022-07-29T22:34:01.163Z,5.00
2022-07-29T22:36:28.251Z,5.13
2022-07-29T22:38:55.300Z,5.13
2022-07-29T22:41:22.663Z,5.35
2022-07-29T22:43:50.001Z,5.00
2022-07-29T22:46:17.078Z,5.13
2022-07-29T22:48:44.277Z,5.07
2022-07-29T22:51:11.385Z,4.93
2022-07-29T22:53:38.750Z,5.07
2022-07-29T22:56:05.878Z,4.60
2022-07-29T22:58:33.011Z,5.15
2022-07-29T23:01:00.070Z,4.97
2022-07-29T23:03:27.279Z,5.10
2022-07-29T23:05:54.762Z,4.82
2022-07-29T23:08:21.969Z,4.88
2022-07-29T23:10:49.086Z,4.60
2022-07-29T23:13:16.119Z,4.50
2022-07-29T23:15:43.751Z,4.32
2022-07-29T23:18:10.871Z,4.40
2022-07-29T23:20:38.042Z,4.70
2022-07-29T23:23:06.232Z,4.55
2022-07-29T23:25:33.617Z,4.80
2022-07-29T23:28:00.734Z,4.95
2022-07-29T23:30:28.133Z,4.00
2022-07-29T23:32:55.617Z,4.85
2022-07-29T23:35:23.736Z,4.55
2022-07-29T23:37:50.908Z,4.03
2022-07-29T23:40:18.264Z,4.18
2022-07-29T23:42:45.632Z,4.30
2022-07-29T23:45:13.466Z,4.25
2022-07-29T23:47:41.584Z,4.20
2022-07-29T23:50:09.286Z,3.90
2022-07-29T23:52:36.460Z,3.90
2022-07-29T23:55:36.664Z,4.07
2022-07-29T23:57:51.985Z,3.78
